createdAt,value
2018-03-19T00:00:05.249Z,0
2018-03-19T00:01:04.948Z,0
2018-03-19T00:02:05.168Z,0
2018-03-19T00:03:04.890Z,0
2018-03-19T00:04:05.096Z,0
2018-03-19T00:05:04.815Z,0
2018-03-19T00:06:05.071Z,0
2018-03-19T00:07:04.738Z,0
2018-03-19T00:08:04.706Z,0
2018-03-19T00:09:04.673Z,0
2018-03-19T00:10:04.893Z,0
2018-03-19T00:11:04.602Z,0
2018-03-19T00:12:04.823Z,0
2018-03-19T00:13:04.531Z,0
2018-03-19T00:14:04.754Z,0
2018-03-19T00:15:04.756Z,0
2018-03-19T00:16:04.677Z,0
2018-03-19T00:17:04.391Z,0
2018-03-19T00:18:04.612Z,0
2018-03-19T00:19:04.382Z,0
2018-03-19T00:20:04.284Z,0
2018-03-19T00:21:04.252Z,0
2018-03-19T00:22:04.216Z,0
2018-03-19T00:23:03.931Z,0
2018-03-19T00:24:04.390Z,0
2018-03-19T00:25:04.117Z,0
2018-03-19T00:26:04.070Z,0
2018-03-19T00:27:04.287Z,0
2018-03-19T00:28:04.014Z,0
2018-03-19T00:29:03.963Z,0
2018-03-19T00:30:03.930Z,0
2018-03-19T00:31:04.147Z,0
2018-03-19T00:32:03.870Z,0
2018-03-19T00:33:04.082Z,0
2018-03-19T00:34:03.796Z,0
2018-03-19T00:35:04.008Z,0
2018-03-19T00:36:03.963Z,0
2018-03-19T00:37:03.448Z,0
2018-03-19T00:38:03.642Z,0
2018-03-19T00:39:03.619Z,0
2018-03-19T00:40:03.576Z,0
2018-03-19T00:41:03.546Z,0
2018-03-19T00:42:03.512Z,0
2018-03-19T00:43:03.479Z,0
2018-03-19T00:44:03.439Z,0
2018-03-19T00:45:03.406Z,0
2018-03-19T00:46:03.614Z,0
2018-03-19T00:47:03.085Z,0
2018-03-19T00:48:03.549Z,0
2018-03-19T00:49:03.513Z,0
2018-03-19T00:50:03.237Z,0
2018-03-19T00:51:03.198Z,0
2018-03-19T00:52:03.408Z,0
2018-03-19T00:53:03.381Z,0
2018-03-19T00:54:03.336Z,0
2018-03-19T00:55:03.295Z,0
2018-03-19T00:56:03.265Z,0
2018-03-19T00:57:02.993Z,0
2018-03-19T00:58:03.191Z,0
2018-03-19T00:59:03.159Z,0
2018-03-19T01:00:03.152Z,0
2018-03-19T01:01:03.140Z,0
2018-03-19T01:02:03.053Z,0
2018-03-19T01:03:03.016Z,0
2018-03-19T01:04:02.738Z,0
2018-03-19T01:05:02.952Z,0
2018-03-19T01:06:02.907Z,0
2018-03-19T01:07:02.871Z,0
2018-03-19T01:08:02.836Z,0
2018-03-19T01:09:02.809Z,0
2018-03-19T01:10:02.759Z,0
2018-03-19T01:11:02.730Z,0
2018-03-19T01:12:02.697Z,0
2018-03-19T01:13:02.411Z,0
2018-03-19T01:14:02.373Z,0
2018-03-19T01:15:02.598Z,0
2018-03-19T01:16:02.054Z,0
2018-03-19T01:17:02.523Z,0
2018-03-19T01:18:02.488Z,0
2018-03-19T01:19:02.199Z,0
2018-03-19T01:20:02.164Z,0
2018-03-19T01:21:02.383Z,0
2018-03-19T01:22:02.107Z,0
2018-03-19T01:23:02.312Z,0
2018-03-19T01:24:02.028Z,0
2018-03-19T01:25:02.243Z,0
2018-03-19T01:26:02.193Z,0
2018-03-19T01:27:02.168Z,0
2018-03-19T01:28:01.881Z,0
2018-03-19T01:29:02.097Z,0
2018-03-19T01:30:02.058Z,0
2018-03-19T01:31:02.021Z,0
2018-03-19T01:32:01.735Z,0
2018-03-19T01:33:01.700Z,0
2018-03-19T01:34:01.924Z,0
2018-03-19T01:35:01.900Z,0
2018-03-19T01:36:01.841Z,0
2018-03-19T01:37:01.822Z,0
2018-03-19T01:38:01.775Z,0
2018-03-19T01:39:01.486Z,0
2018-03-19T01:40:01.701Z,0
2018-03-19T01:41:01.423Z,0
2018-03-19T01:42:01.396Z,0
2018-03-19T01:43:01.354Z,0
2018-03-19T01:44:01.564Z,0
2018-03-19T01:45:01.530Z,0
2018-03-19T01:46:01.491Z,0
2018-03-19T01:47:01.449Z,0
2018-03-19T01:48:01.422Z,0
2018-03-19T01:49:01.387Z,0
2018-03-19T01:50:01.346Z,0
2018-03-19T01:51:01.338Z,0
2018-03-19T01:52:01.024Z,0
2018-03-19T01:53:00.996Z,0
2018-03-19T01:54:01.212Z,0
2018-03-19T01:55:01.172Z,0
2018-03-19T01:56:01.136Z,0
2018-03-19T01:57:01.110Z,0
2018-03-19T01:58:01.068Z,0
2018-03-19T01:59:00.777Z,0
2018-03-19T02:00:00.992Z,0
2018-03-19T02:01:00.953Z,0
2018-03-19T02:02:00.919Z,0
2018-03-19T02:03:00.887Z,0
2018-03-19T02:04:00.852Z,0
2018-03-19T02:05:00.812Z,0
2018-03-19T02:06:00.878Z,0
2018-03-19T02:07:00.740Z,0
2018-03-19T02:08:00.713Z,0
2018-03-19T02:09:00.678Z,0
2018-03-19T02:10:00.629Z,0
2018-03-19T02:11:00.596Z,0
2018-03-19T02:12:00.319Z,0
2018-03-19T02:13:00.532Z,0
2018-03-19T02:14:00.506Z,0
2018-03-19T02:15:00.185Z,0
2018-03-19T02:16:00.437Z,0
2018-03-19T02:17:00.140Z,0
2018-03-19T02:18:00.345Z,0
2018-03-19T02:19:00.327Z,0
2018-03-19T02:20:00.038Z,0
2018-03-19T02:21:00.247Z,0
2018-03-19T02:22:00.208Z,0
2018-03-19T02:23:00.164Z,0
2018-03-19T02:23:59.893Z,0
2018-03-19T02:24:59.847Z,0
2018-03-19T02:26:00.059Z,0
2018-03-19T02:27:00.034Z,0
2018-03-19T02:27:59.750Z,0
2018-03-19T02:28:59.707Z,0
2018-03-19T02:29:59.673Z,0
2018-03-19T02:30:59.910Z,0
2018-03-19T02:31:59.851Z,0
2018-03-19T02:32:59.884Z,0
2018-03-19T02:33:59.783Z,0
2018-03-19T02:34:59.744Z,0
2018-03-19T02:35:59.454Z,0
2018-03-19T02:36:59.676Z,0
2018-03-19T02:37:59.643Z,0
2018-03-19T02:38:59.421Z,0
2018-03-19T02:39:59.563Z,0
2018-03-19T02:40:59.536Z,0
2018-03-19T02:41:59.242Z,0
2018-03-19T02:42:59.216Z,0
2018-03-19T02:43:59.423Z,0
2018-03-19T02:44:59.381Z,0
2018-03-19T02:45:59.094Z,0
2018-03-19T02:46:59.245Z,0
2018-03-19T02:47:59.284Z,0
2018-03-19T02:48:59.240Z,0
2018-03-19T02:49:59.218Z,0
2018-03-19T02:50:59.166Z,0
2018-03-19T02:51:58.970Z,0
2018-03-19T02:52:59.100Z,0
2018-03-19T02:53:59.067Z,0
2018-03-19T02:54:59.040Z,0
2018-03-19T02:55:58.741Z,0
2018-03-19T02:56:58.968Z,0
2018-03-19T02:57:58.688Z,0
2018-03-19T02:58:58.884Z,0
2018-03-19T02:59:58.616Z,0
2018-03-19T03:00:58.571Z,0
2018-03-19T03:01:58.779Z,0
2018-03-19T03:02:58.744Z,0
2018-03-19T03:03:58.473Z,0
2018-03-19T03:04:58.686Z,0
2018-03-19T03:05:58.373Z,0
2018-03-19T03:06:58.595Z,0
2018-03-19T03:07:58.552Z,0
2018-03-19T03:08:58.268Z,0
2018-03-19T03:09:58.237Z,0
2018-03-19T03:10:58.449Z,0
2018-03-19T03:11:58.410Z,0
2018-03-19T03:12:58.378Z,0
2018-03-19T03:13:58.083Z,0
2018-03-19T03:14:58.299Z,0
2018-03-19T03:15:58.022Z,0
2018-03-19T03:16:57.735Z,0
2018-03-19T03:17:57.941Z,0
2018-03-19T03:18:57.904Z,0
2018-03-19T03:19:58.130Z,0
2018-03-19T03:20:58.089Z,0
2018-03-19T03:21:58.051Z,0
2018-03-19T03:22:57.774Z,0
2018-03-19T03:23:57.729Z,0
2018-03-19T03:24:57.939Z,0
2018-03-19T03:25:57.910Z,0
2018-03-19T03:26:57.871Z,0
2018-03-19T03:27:57.834Z,0
2018-03-19T03:28:57.545Z,0
2018-03-19T03:29:57.507Z,0
2018-03-19T03:30:57.738Z,0
2018-03-19T03:31:57.435Z,0
2018-03-19T03:32:57.651Z,0
2018-03-19T03:33:57.620Z,0
2018-03-19T03:34:57.335Z,0
2018-03-19T03:35:57.548Z,0
2018-03-19T03:36:57.531Z,0
2018-03-19T03:37:57.524Z,0
2018-03-19T03:38:57.434Z,0
2018-03-19T03:39:57.151Z,0
2018-03-19T03:40:57.368Z,0
2018-03-19T03:41:56.929Z,0
2018-03-19T03:42:57.054Z,0
2018-03-19T03:43:57.251Z,0
2018-03-19T03:44:57.218Z,0
2018-03-19T03:45:57.184Z,0
2018-03-19T03:46:57.155Z,0
2018-03-19T03:47:57.118Z,0
2018-03-19T03:48:57.072Z,0
2018-03-19T03:49:56.788Z,0
2018-03-19T03:50:56.752Z,0
2018-03-19T03:51:56.716Z,0
2018-03-19T03:52:56.927Z,0
2018-03-19T03:53:56.893Z,0
2018-03-19T03:54:56.914Z,0
2018-03-19T03:55:56.818Z,0
2018-03-19T03:56:56.777Z,0
2018-03-19T03:57:56.753Z,0
2018-03-19T03:58:56.707Z,0
2018-03-19T03:59:56.676Z,0
2018-03-19T04:00:56.389Z,0
2018-03-19T04:01:56.606Z,0
2018-03-19T04:02:56.563Z,0
2018-03-19T04:03:56.562Z,0
2018-03-19T04:04:56.488Z,0
2018-03-19T04:05:56.206Z,0
2018-03-19T04:06:56.417Z,0
2018-03-19T04:07:56.382Z,0
2018-03-19T04:08:56.101Z,0
2018-03-19T04:09:56.307Z,0
2018-03-19T04:10:56.287Z,0
2018-03-19T04:11:56.284Z,0
2018-03-19T04:12:55.949Z,0
2018-03-19T04:13:56.162Z,0
2018-03-19T04:14:56.129Z,0
2018-03-19T04:15:55.837Z,0
2018-03-19T04:16:55.804Z,0
2018-03-19T04:17:56.015Z,0
2018-03-19T04:18:55.739Z,0
2018-03-19T04:19:55.696Z,0
2018-03-19T04:20:55.909Z,0
2018-03-19T04:21:55.398Z,0
2018-03-19T04:22:55.836Z,0
2018-03-19T04:23:55.797Z,0
2018-03-19T04:24:55.524Z,0
2018-03-19T04:25:55.727Z,0
2018-03-19T04:26:55.442Z,0
2018-03-19T04:27:55.664Z,0
2018-03-19T04:28:55.624Z,0
2018-03-19T04:29:55.331Z,0
2018-03-19T04:30:55.538Z,0
2018-03-19T04:31:55.511Z,0
2018-03-19T04:32:55.221Z,0
2018-03-19T04:33:55.433Z,0
2018-03-19T04:34:55.397Z,0
2018-03-19T04:35:55.366Z,0
2018-03-19T04:36:55.374Z,0
2018-03-19T04:37:55.386Z,0
2018-03-19T04:38:55.257Z,0
2018-03-19T04:39:55.222Z,0
2018-03-19T04:40:55.180Z,0
2018-03-19T04:41:55.141Z,0
2018-03-19T04:42:55.102Z,0
2018-03-19T04:43:54.871Z,0
2018-03-19T04:44:55.074Z,0
2018-03-19T04:45:54.758Z,0
2018-03-19T04:46:54.976Z,0
2018-03-19T04:47:54.181Z,0
2018-03-19T04:48:54.642Z,0
2018-03-19T04:49:54.864Z,0
2018-03-19T04:50:54.818Z,0
2018-03-19T04:51:54.790Z,0
2018-03-19T04:52:54.747Z,0
2018-03-19T04:53:54.700Z,0
2018-03-19T04:54:54.668Z,0
2018-03-19T04:55:54.641Z,0
2018-03-19T04:56:54.618Z,0
2018-03-19T04:57:54.776Z,0
2018-03-19T04:58:54.524Z,0
2018-03-19T04:59:54.484Z,0
2018-03-19T05:00:54.464Z,0
2018-03-19T05:01:54.178Z,0
2018-03-19T05:02:54.382Z,0
2018-03-19T05:03:54.358Z,0
2018-03-19T05:04:54.305Z,0
2018-03-19T05:05:54.265Z,0
2018-03-19T05:06:53.974Z,0
2018-03-19T05:07:54.203Z,0
2018-03-19T05:08:53.911Z,0
2018-03-19T05:09:54.119Z,0
2018-03-19T05:10:54.091Z,0
2018-03-19T05:11:53.546Z,0
2018-03-19T05:12:54.012Z,0
2018-03-19T05:13:53.975Z,0
2018-03-19T05:14:53.684Z,0
2018-03-19T05:15:53.904Z,0
2018-03-19T05:16:53.865Z,0
2018-03-19T05:17:53.824Z,0
2018-03-19T05:18:53.785Z,0
2018-03-19T05:19:53.753Z,0
2018-03-19T05:20:53.722Z,0
2018-03-19T05:21:53.432Z,0
2018-03-19T05:22:53.148Z,0
2018-03-19T05:23:53.354Z,5
2018-03-19T05:24:53.573Z,5
2018-03-19T05:25:53.536Z,5
2018-03-19T05:26:53.487Z,5
2018-03-19T05:27:53.211Z,5
2018-03-19T05:28:53.423Z,5
2018-03-19T05:29:53.383Z,10
2018-03-19T05:30:53.360Z,10
2018-03-19T05:31:53.308Z,10
2018-03-19T05:32:53.272Z,10
2018-03-19T05:33:53.249Z,15
2018-03-19T05:34:52.954Z,15
2018-03-19T05:35:53.159Z,15
2018-03-19T05:36:52.878Z,20
2018-03-19T05:37:53.087Z,20
2018-03-19T05:38:52.804Z,20
2018-03-19T05:39:53.007Z,25
2018-03-19T05:40:52.736Z,25
2018-03-19T05:41:52.931Z,25
2018-03-19T05:42:52.907Z,30
2018-03-19T05:43:52.867Z,30
2018-03-19T05:44:52.833Z,35
2018-03-19T05:45:52.791Z,35
2018-03-19T05:46:52.762Z,35
2018-03-19T05:47:52.472Z,40
2018-03-19T05:48:51.935Z,40
2018-03-19T05:49:52.398Z,45
2018-03-19T05:50:52.613Z,45
2018-03-19T05:51:52.578Z,45
2018-03-19T05:52:52.591Z,50
2018-03-19T05:53:52.498Z,50
2018-03-19T05:54:52.214Z,55
2018-03-19T05:55:52.428Z,55
2018-03-19T05:56:52.504Z,60
2018-03-19T05:57:52.351Z,60
2018-03-19T05:58:52.326Z,60
2018-03-19T05:59:52.277Z,65
2018-03-19T06:00:52.246Z,65
2018-03-19T06:01:52.273Z,70
2018-03-19T06:02:52.231Z,70
2018-03-19T06:03:51.885Z,75
2018-03-19T06:04:51.849Z,75
2018-03-19T06:05:52.055Z,75
2018-03-19T06:06:52.070Z,80
2018-03-19T06:07:51.995Z,80
2018-03-19T06:08:51.960Z,85
2018-03-19T06:09:51.907Z,85
2018-03-19T06:10:51.626Z,90
2018-03-19T06:11:51.848Z,90
2018-03-19T06:12:51.807Z,95
2018-03-19T06:13:51.515Z,100
2018-03-19T06:14:51.743Z,100
2018-03-19T06:15:51.695Z,105
2018-03-19T06:16:51.400Z,105
2018-03-19T06:17:51.617Z,110
2018-03-19T06:18:51.581Z,110
2018-03-19T06:19:51.293Z,115
2018-03-19T06:20:51.517Z,115
2018-03-19T06:21:51.470Z,120
2018-03-19T06:22:51.437Z,125
2018-03-19T06:23:51.403Z,125
2018-03-19T06:24:51.363Z,125
2018-03-19T06:25:51.077Z,130
2018-03-19T06:26:51.301Z,130
2018-03-19T06:27:51.252Z,135
2018-03-19T06:28:51.210Z,135
2018-03-19T06:29:51.228Z,140
2018-03-19T06:30:51.156Z,145
2018-03-19T06:31:50.865Z,145
2018-03-19T06:32:51.077Z,150
2018-03-19T06:33:51.185Z,155
2018-03-19T06:34:50.999Z,155
2018-03-19T06:35:51.921Z,160
2018-03-19T06:36:50.938Z,165
2018-03-19T06:37:50.940Z,165
2018-03-19T06:38:50.854Z,170
2018-03-19T06:39:50.832Z,170
2018-03-19T06:40:50.820Z,175
2018-03-19T06:41:50.738Z,175
2018-03-19T06:42:50.710Z,180
2018-03-19T06:43:50.431Z,180
2018-03-19T06:44:50.640Z,180
2018-03-19T06:45:50.602Z,185
2018-03-19T06:46:50.560Z,185
2018-03-19T06:47:50.526Z,185
2018-03-19T06:48:50.240Z,190
2018-03-19T06:49:50.570Z,190
2018-03-19T06:50:50.414Z,190
2018-03-19T06:51:50.383Z,195
2018-03-19T06:52:50.346Z,195
2018-03-19T06:53:50.062Z,195
2018-03-19T06:54:50.270Z,195
2018-03-19T06:55:50.240Z,200
2018-03-19T06:56:50.199Z,200
2018-03-19T06:57:49.913Z,200
2018-03-19T06:58:50.135Z,205
2018-03-19T06:59:49.844Z,205
2018-03-19T07:00:50.060Z,205
2018-03-19T07:01:49.772Z,210
2018-03-19T07:02:49.733Z,210
2018-03-19T07:03:49.950Z,210
2018-03-19T07:04:49.662Z,215
2018-03-19T07:05:49.948Z,215
2018-03-19T07:06:49.592Z,215
2018-03-19T07:07:49.553Z,220
2018-03-19T07:08:49.771Z,225
2018-03-19T07:09:49.729Z,225
2018-03-19T07:10:49.449Z,230
2018-03-19T07:11:49.656Z,230
2018-03-19T07:12:49.375Z,235
2018-03-19T07:13:49.333Z,245
2018-03-19T07:14:49.562Z,250
2018-03-19T07:15:49.515Z,250
2018-03-19T07:16:49.876Z,255
2018-03-19T07:17:49.194Z,265
2018-03-19T07:18:49.177Z,265
2018-03-19T07:19:49.379Z,275
2018-03-19T07:20:49.329Z,285
2018-03-19T07:21:49.320Z,295
2018-03-19T07:22:49.012Z,305
2018-03-19T07:23:49.225Z,315
2018-03-19T07:24:49.188Z,320
2018-03-19T07:25:49.151Z,325
2018-03-19T07:26:49.121Z,335
2018-03-19T07:27:49.091Z,340
2018-03-19T07:28:49.047Z,345
2018-03-19T07:29:49.014Z,350
2018-03-19T07:30:48.739Z,355
2018-03-19T07:31:49.055Z,360
2018-03-19T07:32:48.907Z,365
2018-03-19T07:33:48.623Z,370
2018-03-19T07:34:49.179Z,375
2018-03-19T07:35:48.802Z,380
2018-03-19T07:36:48.766Z,380
2018-03-19T07:37:48.481Z,390
2018-03-19T07:38:48.697Z,395
2018-03-19T07:39:48.418Z,395
2018-03-19T07:40:48.635Z,400
2018-03-19T07:41:48.358Z,400
2018-03-19T07:42:48.554Z,400
2018-03-19T07:43:48.156Z,400
2018-03-19T07:44:48.488Z,405
2018-03-19T07:45:48.453Z,405
2018-03-19T07:46:48.943Z,400
2018-03-19T07:47:48.595Z,400
2018-03-19T07:48:48.802Z,395
2018-03-19T07:49:48.631Z,390
2018-03-19T07:50:48.285Z,385
2018-03-19T07:51:47.993Z,380
2018-03-19T07:52:47.955Z,380
2018-03-19T07:53:48.170Z,370
2018-03-19T07:54:48.139Z,360
2018-03-19T07:55:47.603Z,350
2018-03-19T07:56:48.077Z,340
2018-03-19T07:57:47.779Z,335
2018-03-19T07:58:48.012Z,335
2018-03-19T07:59:47.974Z,335
2018-03-19T08:00:48.475Z,335
2018-03-19T08:01:47.995Z,335
2018-03-19T08:02:47.971Z,335
2018-03-19T08:03:48.211Z,330
2018-03-19T08:04:48.871Z,330
2018-03-19T08:05:47.868Z,330
2018-03-19T08:06:47.226Z,335
2018-03-19T08:07:47.686Z,335
2018-03-19T08:08:47.653Z,335
2018-03-19T08:09:47.622Z,335
2018-03-19T08:10:47.333Z,335
2018-03-19T08:11:47.556Z,335
2018-03-19T08:12:47.592Z,340
2018-03-19T08:13:48.149Z,340
2018-03-19T08:14:48.685Z,335
2018-03-19T08:15:48.785Z,330
2018-03-19T08:16:49.922Z,330
2018-03-19T08:17:48.864Z,330
2018-03-19T08:18:49.171Z,330
2018-03-19T08:19:49.578Z,335
2018-03-19T08:20:47.254Z,340
2018-03-19T08:21:46.456Z,345
2018-03-19T08:22:46.683Z,350
2018-03-19T08:23:48.788Z,350
2018-03-19T08:24:47.243Z,350
2018-03-19T08:25:47.053Z,350
2018-03-19T08:26:46.782Z,350
2018-03-19T08:27:47.739Z,345
2018-03-19T08:28:49.323Z,345
2018-03-19T08:29:47.307Z,340
2018-03-19T08:30:46.891Z,340
2018-03-19T08:31:46.851Z,340
2018-03-19T08:32:46.824Z,335
2018-03-19T08:33:46.787Z,340
2018-03-19T08:34:46.754Z,340
2018-03-19T08:35:46.720Z,340
2018-03-19T08:36:46.770Z,340
2018-03-19T08:37:46.152Z,335
2018-03-19T08:38:46.619Z,335
2018-03-19T08:39:46.640Z,335
2018-03-19T08:40:46.295Z,335
2018-03-19T08:41:46.280Z,335
2018-03-19T08:42:46.483Z,335
2018-03-19T08:43:46.197Z,340
2018-03-19T08:44:46.408Z,340
2018-03-19T08:45:45.886Z,340
2018-03-19T08:46:46.137Z,340
2018-03-19T08:47:46.326Z,345
2018-03-19T08:48:45.773Z,340
2018-03-19T08:49:46.236Z,340
2018-03-19T08:50:46.755Z,335
2018-03-19T08:51:47.823Z,340
2018-03-19T08:52:45.885Z,340
2018-03-19T08:53:46.580Z,345
2018-03-19T08:54:45.814Z,340
2018-03-19T08:55:46.308Z,335
2018-03-19T08:56:46.145Z,335
2018-03-19T08:57:45.957Z,340
2018-03-19T08:58:45.726Z,335
2018-03-19T08:59:45.894Z,340
2018-03-19T09:00:45.863Z,335
2018-03-19T09:01:45.826Z,335
2018-03-19T09:02:45.537Z,330
2018-03-19T09:03:45.503Z,330
2018-03-19T09:04:45.836Z,330
2018-03-19T09:05:45.191Z,330
2018-03-19T09:06:45.655Z,335
2018-03-19T09:07:45.632Z,335
2018-03-19T09:08:45.329Z,340
2018-03-19T09:09:45.546Z,340
2018-03-19T09:10:45.522Z,345
2018-03-19T09:11:45.007Z,345
2018-03-19T09:12:45.499Z,345
2018-03-19T09:13:45.158Z,345
2018-03-19T09:14:47.724Z,345
2018-03-19T09:15:45.328Z,350
2018-03-19T09:16:45.655Z,345
2018-03-19T09:17:45.043Z,345
2018-03-19T09:18:44.990Z,345
2018-03-19T09:19:44.736Z,345
2018-03-19T09:20:45.167Z,345
2018-03-19T09:21:44.775Z,340
2018-03-19T09:22:44.849Z,340
2018-03-19T09:23:44.575Z,340
2018-03-19T09:24:45.031Z,345
2018-03-19T09:25:44.763Z,340
2018-03-19T09:26:44.466Z,345
2018-03-19T09:27:44.688Z,345
2018-03-19T09:28:44.646Z,345
2018-03-19T09:29:44.624Z,345
2018-03-19T09:30:44.334Z,345
2018-03-19T09:31:44.632Z,345
2018-03-19T09:32:44.518Z,350
2018-03-19T09:33:44.731Z,345
2018-03-19T09:34:44.963Z,345
2018-03-19T09:35:44.662Z,345
2018-03-19T09:36:44.870Z,345
2018-03-19T09:37:44.594Z,350
2018-03-19T09:38:44.565Z,350
2018-03-19T09:39:44.540Z,350
2018-03-19T09:40:44.332Z,350
2018-03-19T09:41:44.366Z,350
2018-03-19T09:42:43.943Z,350
2018-03-19T09:43:45.256Z,350
2018-03-19T09:44:44.355Z,355
2018-03-19T09:45:44.379Z,355
2018-03-19T09:46:44.291Z,355
2018-03-19T09:47:44.283Z,355
2018-03-19T09:48:44.306Z,355
2018-03-19T09:49:43.951Z,355
2018-03-19T09:50:44.333Z,355
2018-03-19T09:51:44.113Z,355
2018-03-19T09:52:44.088Z,355
2018-03-19T09:53:44.044Z,355
2018-03-19T09:54:44.221Z,350
2018-03-19T09:55:44.259Z,345
2018-03-19T09:56:43.955Z,350
2018-03-19T09:57:43.920Z,355
2018-03-19T09:58:43.882Z,350
2018-03-19T09:59:43.615Z,355
2018-03-19T10:00:43.810Z,355
2018-03-19T10:01:43.778Z,355
2018-03-19T10:02:43.794Z,355
2018-03-19T10:03:43.767Z,360
2018-03-19T10:04:43.681Z,360
2018-03-19T10:05:43.401Z,360
2018-03-19T10:06:43.618Z,360
2018-03-19T10:07:43.336Z,360
2018-03-19T10:08:43.614Z,355
2018-03-19T10:09:43.516Z,355
2018-03-19T10:10:43.479Z,355
2018-03-19T10:11:42.950Z,355
2018-03-19T10:12:43.407Z,355
2018-03-19T10:13:43.132Z,355
2018-03-19T10:14:43.099Z,355
2018-03-19T10:15:43.313Z,355
2018-03-19T10:16:42.786Z,355
2018-03-19T10:17:43.238Z,355
2018-03-19T10:18:43.208Z,355
2018-03-19T10:19:42.926Z,360
2018-03-19T10:20:42.682Z,360
2018-03-19T10:21:42.689Z,360
2018-03-19T10:22:43.521Z,360
2018-03-19T10:23:44.040Z,360
2018-03-19T10:24:42.755Z,360
2018-03-19T10:25:42.979Z,360
2018-03-19T10:26:42.981Z,355
2018-03-19T10:27:43.023Z,355
2018-03-19T10:28:42.969Z,360
2018-03-19T10:29:43.166Z,360
2018-03-19T10:30:43.064Z,360
2018-03-19T10:31:42.624Z,360
2018-03-19T10:32:42.553Z,360
2018-03-19T10:33:42.949Z,360
2018-03-19T10:34:42.902Z,360
2018-03-19T10:35:42.682Z,360
2018-03-19T10:36:42.885Z,360
2018-03-19T10:37:43.416Z,360
2018-03-19T10:38:42.780Z,360
2018-03-19T10:39:42.635Z,360
2018-03-19T10:40:42.360Z,360
2018-03-19T10:41:42.473Z,360
2018-03-19T10:42:42.470Z,360
2018-03-19T10:43:42.467Z,360
2018-03-19T10:44:42.214Z,360
2018-03-19T10:45:42.519Z,360
2018-03-19T10:46:42.418Z,360
2018-03-19T10:47:42.305Z,360
2018-03-19T10:48:41.979Z,360
2018-03-19T10:49:42.279Z,360
2018-03-19T10:50:41.664Z,365
2018-03-19T10:51:42.173Z,365
2018-03-19T10:52:41.926Z,365
2018-03-19T10:53:42.089Z,365
2018-03-19T10:54:42.136Z,365
2018-03-19T10:55:42.062Z,365
2018-03-19T10:56:41.968Z,365
2018-03-19T10:57:41.993Z,360
2018-03-19T10:58:41.805Z,365
2018-03-19T10:59:41.885Z,370
2018-03-19T11:00:41.611Z,370
2018-03-19T11:01:41.862Z,370
2018-03-19T11:02:42.007Z,365
2018-03-19T11:03:41.506Z,365
2018-03-19T11:04:41.271Z,365
2018-03-19T11:05:41.186Z,365
2018-03-19T11:06:41.676Z,365
2018-03-19T11:07:41.383Z,365
2018-03-19T11:08:42.154Z,365
2018-03-19T11:09:41.310Z,365
2018-03-19T11:10:41.574Z,365
2018-03-19T11:11:41.223Z,365
2018-03-19T11:12:40.952Z,365
2018-03-19T11:13:41.405Z,365
2018-03-19T11:14:41.407Z,365
2018-03-19T11:15:40.965Z,365
2018-03-19T11:16:40.870Z,365
2018-03-19T11:17:41.201Z,365
2018-03-19T11:18:40.782Z,365
2018-03-19T11:19:41.005Z,360
2018-03-19T11:20:41.333Z,370
2018-03-19T11:21:41.139Z,370
2018-03-19T11:22:41.901Z,360
2018-03-19T11:23:40.832Z,365
2018-03-19T11:24:41.044Z,365
2018-03-19T11:25:40.763Z,370
2018-03-19T11:26:41.040Z,370
2018-03-19T11:27:40.936Z,370
2018-03-19T11:28:40.950Z,370
2018-03-19T11:29:40.713Z,370
2018-03-19T11:30:41.038Z,370
2018-03-19T11:31:40.319Z,370
2018-03-19T11:32:40.779Z,370
2018-03-19T11:33:40.502Z,370
2018-03-19T11:34:40.478Z,370
2018-03-19T11:35:40.680Z,370
2018-03-19T11:36:40.782Z,375
2018-03-19T11:37:40.375Z,375
2018-03-19T11:38:40.590Z,375
2018-03-19T11:39:40.563Z,375
2018-03-19T11:40:40.530Z,375
2018-03-19T11:41:40.107Z,380
2018-03-19T11:42:40.469Z,380
2018-03-19T11:43:39.936Z,380
2018-03-19T11:44:40.399Z,385
2018-03-19T11:45:40.366Z,385
2018-03-19T11:46:40.489Z,385
2018-03-19T11:47:40.312Z,385
2018-03-19T11:48:39.775Z,385
2018-03-19T11:49:39.990Z,380
2018-03-19T11:50:39.961Z,380
2018-03-19T11:51:40.178Z,380
2018-03-19T11:52:39.940Z,380
2018-03-19T11:53:41.085Z,380
2018-03-19T11:54:40.136Z,380
2018-03-19T11:55:39.816Z,380
2018-03-19T11:56:39.765Z,380
2018-03-19T11:57:40.055Z,380
2018-03-19T11:58:39.954Z,380
2018-03-19T11:59:39.973Z,385
2018-03-19T12:00:39.895Z,385
2018-03-19T12:01:39.615Z,390
2018-03-19T12:02:39.330Z,385
2018-03-19T12:03:39.545Z,385
2018-03-19T12:04:39.520Z,385
2018-03-19T12:05:39.734Z,390
2018-03-19T12:06:39.452Z,385
2018-03-19T12:07:39.668Z,385
2018-03-19T12:08:39.647Z,385
2018-03-19T12:09:39.358Z,385
2018-03-19T12:10:39.332Z,385
2018-03-19T12:11:39.301Z,390
2018-03-19T12:12:39.260Z,385
2018-03-19T12:13:39.508Z,385
2018-03-19T12:14:39.203Z,385
2018-03-19T12:15:40.026Z,385
2018-03-19T12:16:40.552Z,385
2018-03-19T12:17:39.110Z,380
2018-03-19T12:18:39.335Z,380
2018-03-19T12:19:40.197Z,380
2018-03-19T12:20:39.016Z,380
2018-03-19T12:21:39.227Z,390
2018-03-19T12:22:38.956Z,390
2018-03-19T12:23:38.917Z,390
2018-03-19T12:24:39.132Z,385
2018-03-19T12:25:38.859Z,390
2018-03-19T12:26:39.080Z,390
2018-03-19T12:27:39.043Z,390
2018-03-19T12:28:39.018Z,390
2018-03-19T12:29:38.985Z,390
2018-03-19T12:30:38.944Z,390
2018-03-19T12:31:38.969Z,390
2018-03-19T12:32:38.909Z,385
2018-03-19T12:33:38.605Z,385
2018-03-19T12:34:38.826Z,385
2018-03-19T12:35:38.841Z,385
2018-03-19T12:36:38.572Z,380
2018-03-19T12:37:38.737Z,370
2018-03-19T12:38:38.693Z,375
2018-03-19T12:39:38.770Z,375
2018-03-19T12:40:39.113Z,375
2018-03-19T12:41:40.149Z,380
2018-03-19T12:42:39.155Z,370
2018-03-19T12:43:39.075Z,395
2018-03-19T12:44:38.036Z,395
2018-03-19T12:45:39.496Z,400
2018-03-19T12:46:38.219Z,400
2018-03-19T12:47:38.442Z,400
2018-03-19T12:48:38.474Z,395
2018-03-19T12:49:38.124Z,395
2018-03-19T12:50:38.125Z,390
2018-03-19T12:51:38.306Z,390
2018-03-19T12:52:38.296Z,395
2018-03-19T12:53:38.290Z,395
2018-03-19T12:54:37.959Z,395
2018-03-19T12:55:38.264Z,390
2018-03-19T12:56:37.664Z,385
2018-03-19T12:57:38.142Z,390
2018-03-19T12:58:38.174Z,390
2018-03-19T12:59:37.808Z,390
2018-03-19T13:00:38.466Z,390
2018-03-19T13:01:37.601Z,385
2018-03-19T13:02:38.884Z,385
2018-03-19T13:03:37.689Z,380
2018-03-19T13:04:37.650Z,380
2018-03-19T13:05:37.871Z,370
2018-03-19T13:06:37.930Z,355
2018-03-19T13:07:37.680Z,355
2018-03-19T13:08:37.527Z,370
2018-03-19T13:09:37.837Z,370
2018-03-19T13:10:37.759Z,375
2018-03-19T13:11:37.629Z,375
2018-03-19T13:12:37.868Z,375
2018-03-19T13:13:37.624Z,375
2018-03-19T13:14:37.589Z,380
2018-03-19T13:15:37.322Z,375
2018-03-19T13:16:37.849Z,375
2018-03-19T13:17:39.208Z,375
2018-03-19T13:18:37.603Z,375
2018-03-19T13:19:37.485Z,375
2018-03-19T13:20:37.483Z,375
2018-03-19T13:21:37.935Z,370
2018-03-19T13:22:37.312Z,375
2018-03-19T13:23:37.648Z,370
2018-03-19T13:24:37.343Z,370
2018-03-19T13:25:36.767Z,365
2018-03-19T13:26:37.928Z,370
2018-03-19T13:27:36.938Z,370
2018-03-19T13:28:37.469Z,365
2018-03-19T13:29:37.777Z,365
2018-03-19T13:30:36.855Z,365
2018-03-19T13:31:37.078Z,365
2018-03-19T13:32:37.043Z,365
2018-03-19T13:33:36.807Z,365
2018-03-19T13:34:36.729Z,365
2018-03-19T13:35:36.704Z,370
2018-03-19T13:36:36.433Z,370
2018-03-19T13:37:37.300Z,370
2018-03-19T13:38:37.072Z,370
2018-03-19T13:39:36.164Z,370
2018-03-19T13:40:37.173Z,370
2018-03-19T13:41:36.778Z,375
2018-03-19T13:42:36.743Z,375
2018-03-19T13:43:36.702Z,380
2018-03-19T13:44:36.430Z,380
2018-03-19T13:45:36.647Z,380
2018-03-19T13:46:36.378Z,385
2018-03-19T13:47:36.337Z,385
2018-03-19T13:48:36.559Z,385
2018-03-19T13:49:36.536Z,385
2018-03-19T13:50:36.366Z,385
2018-03-19T13:51:37.002Z,385
2018-03-19T13:52:36.438Z,385
2018-03-19T13:53:36.688Z,380
2018-03-19T13:54:36.275Z,380
2018-03-19T13:55:36.341Z,370
2018-03-19T13:56:36.315Z,365
2018-03-19T13:57:36.284Z,360
2018-03-19T13:58:36.254Z,360
2018-03-19T13:59:35.975Z,360
2018-03-19T14:00:36.249Z,355
2018-03-19T14:01:36.165Z,355
2018-03-19T14:02:36.131Z,340
2018-03-19T14:03:35.871Z,350
2018-03-19T14:04:36.072Z,335
2018-03-19T14:05:35.862Z,345
2018-03-19T14:06:36.026Z,355
2018-03-19T14:07:35.738Z,360
2018-03-19T14:08:35.951Z,365
2018-03-19T14:09:35.423Z,365